Time;durP1;ratioP1;P1;durP2;ratioP2;P2;SDS_P1;SDS_P2;PMS_P1;PMS_P2;Temp;Humidity;BMP_temperature;BMP_pressure;BME280_temperature;BME280_humidity;BME280_pressure;Samples;Min_cycle;Max_cycle;Signal;HPM_P1;HPM_P2
2021/06/29 00:02:00;;;;;;;10.15;9.15;;;;;;;;;;4973330;28;20027;-62
2021/06/29 00:04:27;;;;;;;11.88;9.43;;;;;;;;;;4973871;28;20046;-63
2021/06/29 00:06:53;;;;;;;10.40;9.48;;;;;;;;;;4973570;28;20081;-64
2021/06/29 00:09:19;;;;;;;11.13;9.10;;;;;;;;;;4973726;28;20049;-63
2021/06/29 00:11:45;;;;;;;9.38;8.35;;;;;;;;;;4973696;28;20041;-63
2021/06/29 00:14:11;;;;;;;11.77;8.68;;;;;;;;;;4973564;28;20493;-63
2021/06/29 00:16:37;;;;;;;9.20;8.27;;;;;;;;;;4973571;28;20031;-63
2021/06/29 00:19:03;;;;;;;9.77;8.80;;;;;;;;;;4973601;28;20022;-62
2021/06/29 00:21:29;;;;;;;10.18;8.80;;;;;;;;;;4973680;28;20023;-63
2021/06/29 00:23:55;;;;;;;10.00;9.00;;;;;;;;;;4973551;28;20110;-62
2021/06/29 00:26:21;;;;;;;11.30;9.43;;;;;;;;;;4973564;28;20034;-62
2021/06/29 00:28:47;;;;;;;10.23;8.95;;;;;;;;;;4973337;28;20096;-63
2021/06/29 00:31:13;;;;;;;11.60;9.15;;;;;;;;;;4973180;28;20375;-63
2021/06/29 00:33:39;;;;;;;10.15;9.15;;;;;;;;;;4973584;28;20113;-62
2021/06/29 00:36:06;;;;;;;9.77;8.77;;;;;;;;;;4973401;28;20027;-62
2021/06/29 00:38:32;;;;;;;13.63;9.32;;;;;;;;;;4973591;28;20374;-61
2021/06/29 00:40:58;;;;;;;10.10;8.75;;;;;;;;;;4973524;28;20090;-63
2021/06/29 00:43:24;;;;;;;10.63;9.57;;;;;;;;;;4973252;28;20015;-62
2021/06/29 00:45:50;;;;;;;9.73;8.82;;;;;;;;;;4973412;28;20031;-63
2021/06/29 00:48:16;;;;;;;10.48;9.48;;;;;;;;;;4973282;28;20030;-65
2021/06/29 00:50:44;;;;;;;10.10;9.10;;;;;;;;;;4973497;28;20023;-64
2021/06/29 00:53:11;;;;;;;10.40;9.13;;;;;;;;;;4973282;28;20038;-64
2021/06/29 00:55:38;;;;;;;10.95;9.25;;;;;;;;;;4973407;28;20461;-64
2021/06/29 00:58:07;;;;;;;10.45;9.07;;;;;;;;;;4973199;28;20038;-61
2021/06/29 01:00:34;;;;;;;10.23;9.23;;;;;;;;;;4973181;28;20025;-64
2021/06/29 01:03:00;;;;;;;11.05;9.38;;;;;;;;;;4973392;28;20030;-64
2021/06/29 01:05:26;;;;;;;10.35;9.35;;;;;;;;;;4974426;28;20113;-63
2021/06/29 01:07:51;;;;;;;9.85;8.85;;;614.60;1894.40;;;;;;4976932;28;20114;-63
2021/06/29 01:10:18;;;;;;;9.52;8.50;;;614.40;1894.40;;;;;;4976843;28;20105;-64
2021/06/29 01:12:45;;;;;;;11.43;8.93;;;614.40;1920.00;;;;;;4976958;28;20456;-63
2021/06/29 01:15:11;;;;;;;10.18;9.23;;;614.40;1920.00;;;;;;4976737;28;20034;-62
2021/06/29 01:17:37;;;;;;;10.38;9.10;;;614.40;2048.00;;;;;;4976687;28;20034;-63
2021/06/29 01:20:07;;;;;;;12.23;9.68;;;589.70;1945.60;;;;;;4976800;28;20031;-63
2021/06/29 01:22:33;;;;;;;10.07;9.07;;;614.60;1894.40;;;;;;4976858;28;20367;-63
2021/06/29 01:24:59;;;;;;;9.35;8.43;;;614.70;1894.40;;;;;;4976615;28;20042;-63
2021/06/29 01:32:50;;;;;;;10.13;9.13;;;;;;;;;;4935434;29;20198;-64
2021/06/29 01:35:17;;;;;;;9.95;9.05;;;;;;;;;;4935948;29;20027;-65
2021/06/29 01:37:43;;;;;;;10.48;8.45;;;;;;;;;;4935746;29;20032;-64
2021/06/29 01:40:14;;;;;;;9.50;8.60;;;;;;;;;;4935671;29;20065;-64
2021/06/29 01:42:40;;;;;;;12.48;9.05;;;;;;;;;;4935859;29;20039;-64
2021/06/29 01:45:07;;;;;;;10.40;8.70;;;;;;;;;;4930917;29;20043;-61
2021/06/29 01:50:08;;;;;;;9.65;8.23;;;;;;;;;;4935567;29;20111;-62
2021/06/29 01:52:35;;;;;;;9.50;8.60;;;;;;;;;;4935659;29;20031;-63
2021/06/29 01:55:01;;;;;;;12.20;8.68;;;;;;;;;;4935282;29;20027;-62
2021/06/29 01:57:27;;;;;;;9.95;8.80;;;;;;;;;;4935506;29;20474;-62
2021/06/29 01:59:53;;;;;;;9.15;8.15;;;;;;;;;;4935329;29;20502;-62
2021/06/29 02:02:19;;;;;;;9.40;8.55;;;;;;;;;;4935350;29;20035;-62
2021/06/29 02:04:45;;;;;;;9.00;8.13;;;;;;;;;;4935385;29;20043;-62
2021/06/29 02:07:11;;;;;;;10.23;8.80;;;;;;;;;;4975815;28;20042;-63
2021/06/29 02:09:37;;;;;;;12.52;8.93;;;;;;;;;;4976024;28;20413;-63
2021/06/29 02:12:03;;;;;;;10.23;9.15;;;;;;;;;;4975630;28;20488;-61
2021/06/29 02:14:29;;;;;;;10.02;9.02;;;;;;;;;;4975773;28;20029;-64
2021/06/29 02:16:55;;;;;;;10.38;9.27;;;;;;;;;;4975377;28;20042;-64
2021/06/29 02:19:21;;;;;;;9.57;8.38;;;;;;;;;;4975788;28;20027;-64
2021/06/29 02:21:47;;;;;;;10.63;9.05;;;;;;;;;;4975609;28;20056;-63
2021/06/29 02:24:13;;;;;;;10.63;9.57;;;;;;;;;;4975401;28;20374;-63
2021/06/29 02:26:40;;;;;;;10.13;9.10;;;;;;;;;;4975396;28;20129;-63
2021/06/29 02:29:06;;;;;;;16.02;11.35;;;;;;;;;;4975532;28;20568;-63
2021/06/29 02:31:32;;;;;;;11.80;9.40;;;;;;;;;;4975047;28;20042;-64
2021/06/29 02:33:58;;;;;;;11.45;9.50;;;;;;;;;;4975331;28;20034;-64
2021/06/29 02:36:24;;;;;;;11.10;9.43;;;;;;;;;;4975218;28;20029;-64
2021/06/29 02:38:50;;;;;;;10.60;9.60;;;;;;;;;;4975267;28;20473;-64
2021/06/29 02:41:16;;;;;;;10.75;9.65;;;;;;;;;;4975106;28;20034;-64
2021/06/29 02:43:42;;;;;;;10.60;9.40;;;;;;;;;;4975278;28;20026;-64
2021/06/29 02:46:08;;;;;;;10.35;9.43;;;;;;;;;;4974903;28;20062;-64
2021/06/29 02:48:34;;;;;;;10.57;9.55;;;;;;;;;;4975039;28;20023;-64
2021/06/29 02:51:01;;;;;;;14.30;9.27;;;;;;;;;;4975070;28;20023;-63
2021/06/29 02:53:27;;;;;;;10.80;9.45;;;;;;;;;;4974826;28;20493;-62
2021/06/29 02:55:53;;;;;;;11.82;9.80;;;;;;;;;;4974925;28;20097;-64
2021/06/29 02:58:19;;;;;;;10.65;9.57;;;;;;;;;;4974798;28;20030;-63
2021/06/29 03:00:45;;;;;;;12.10;9.88;;;;;;;;;;4974223;28;20026;-63
2021/06/29 03:03:11;;;;;;;11.80;10.00;;;;;;;;;;4974696;28;20054;-64
2021/06/29 03:05:37;;;;;;;10.20;8.95;;;;;;;;;;4989397;28;20490;-64
2021/06/29 03:08:04;;;;;;;19.58;12.02;;;;;;;;;;4974799;28;20035;-63
2021/06/29 03:10:30;;;;;;;10.75;9.60;;;;;;;;;;4974385;28;20022;-65
2021/06/29 03:12:56;;;;;;;12.60;9.75;;;;;;;;;;4974604;28;20030;-63
2021/06/29 03:15:22;;;;;;;20.15;11.10;;;;;;;;;;4974431;28;20057;-65
2021/06/29 03:17:50;;;;;;;10.73;9.60;;;;;;;;;;4974259;28;20062;-65
2021/06/29 03:20:16;;;;;;;11.07;9.85;;;;;;;;;;4974399;28;20026;-65
2021/06/29 03:22:43;;;;;;;16.98;10.00;;;;;;;;;;4974307;28;20494;-65
2021/06/29 03:25:09;;;;;;;10.90;9.75;;;;;;;;;;4974225;28;20077;-64
2021/06/29 03:27:35;;;;;;;10.48;9.40;;;;;;;;;;4973587;28;20042;-63
2021/06/29 03:30:02;;;;;;;13.23;10.00;;;;;;;;;;4974310;28;20022;-64
2021/06/29 03:32:28;;;;;;;10.95;9.73;;;;;;;;;;4974236;28;20054;-64
2021/06/29 03:34:54;;;;;;;10.70;9.60;;;;;;;;;;4974162;28;20022;-64
2021/06/29 03:37:20;;;;;;;11.10;9.15;;;;;;;;;;4974202;28;20030;-63
2021/06/29 03:39:46;;;;;;;11.50;10.35;;;;;;;;;;4973965;28;20027;-63
2021/06/29 03:42:12;;;;;;;12.38;9.93;;;;;;;;;;4974294;28;20587;-63
2021/06/29 03:44:38;;;;;;;10.73;9.25;;;;;;;;;;4974111;28;20034;-63
2021/06/29 03:47:04;;;;;;;11.82;9.73;;;;;;;;;;4973713;28;20042;-63
2021/06/29 03:49:30;;;;;;;20.85;10.60;;;;;;;;;;4974078;28;20038;-64
2021/06/29 03:51:57;;;;;;;12.27;10.63;;;;;;;;;;4973838;28;20022;-65
2021/06/29 03:54:23;;;;;;;10.77;9.60;;;;;;;;;;4973972;28;20474;-63
2021/06/29 03:56:49;;;;;;;13.13;11.75;;;;;;;;;;4973754;28;20106;-65
2021/06/29 03:59:15;;;;;;;17.08;11.50;;;;;;;;;;4973748;28;20394;-63
2021/06/29 04:01:42;;;;;;;13.05;10.45;;;;;;;;;;4973268;28;20049;-62
2021/06/29 04:04:09;;;;;;;10.93;9.82;;;;;;;;;;4973019;28;20027;-62
2021/06/29 04:06:36;;;;;;;12.40;11.02;;;;;;;;;;4973136;28;20045;-63
2021/06/29 04:09:03;;;;;;;11.90;10.70;;;;;;;;;;4973031;28;20062;-64
2021/06/29 04:11:29;;;;;;;12.93;10.40;;;;;;;;;;4973365;28;20046;-64
2021/06/29 04:13:56;;;;;;;11.80;9.85;;;;;;;;;;4973549;28;20023;-64
2021/06/29 04:16:22;;;;;;;17.85;10.52;;;;;;;;;;4973368;28;20035;-75
2021/06/29 04:18:48;;;;;;;10.85;9.15;;;614.60;1817.60;;;;;;4973542;28;20026;-77
2021/06/29 04:21:14;;;;;;;10.70;9.60;;;614.50;1817.60;;;;;;4973207;28;20057;-76
2021/06/29 04:23:44;;;;;;;12.13;9.90;;;614.50;1843.20;;;;;;4973092;28;20053;-77
2021/06/29 04:26:11;;;;;;;12.32;10.48;;;589.60;1868.80;;;;;;4973472;28;20034;-78
2021/06/29 04:28:36;;;;;;;11.13;9.38;;;589.40;1920.00;;;;;;4973491;28;20417;-78
2021/06/29 04:31:02;;;;;;;14.70;10.77;;;589.20;1945.60;;;;;;4973579;28;20046;-78
2021/06/29 04:33:28;;;;;;;13.23;11.00;;;589.10;1971.20;;;;;;4973509;28;20026;-77
2021/06/29 04:35:54;;;;;;;16.95;10.68;;;589.10;1971.20;;;;;;4974011;28;20027;-78
2021/06/29 04:38:19;;;;;;;13.75;11.23;;;589.30;1945.60;;;;;;4973536;28;20046;-78
2021/06/29 04:40:45;;;;;;;15.65;13.00;;;589.30;1971.20;;;;;;4975302;28;20105;-78
2021/06/29 04:43:11;;;;;;;14.02;12.00;;;589.30;1971.20;;;;;;4977378;28;20026;-78
2021/06/29 04:45:37;;;;;;;15.07;12.70;;;589.70;1894.40;;;;;;4977476;28;20034;-77
2021/06/29 04:48:03;;;;;;;14.90;11.85;;;589.60;1920.00;;;;;;4977188;28;20074;-77
2021/06/29 04:50:28;;;;;;;14.40;12.25;;;589.70;1920.00;;;;;;4977320;28;20014;-78
2021/06/29 04:52:54;;;;;;;15.15;11.43;;;589.60;1920.00;;;;;;4977237;28;20037;-77
2021/06/29 04:55:20;;;;;;;14.48;10.88;;;589.70;1894.40;;;;;;4977607;28;20066;-77
2021/06/29 04:57:46;;;;;;;16.27;11.45;;;614.40;1894.40;;;;;;4975776;28;20057;-76
2021/06/29 05:00:16;;;;;;;13.10;10.32;;;614.60;1868.80;;;;;;4977138;28;20093;-77
2021/06/29 05:02:42;;;;;;;13.20;10.80;;;614.70;1868.80;;;;;;4976945;28;20031;-79
2021/06/29 05:05:09;;;;;;;14.82;12.60;;;614.80;1843.20;;;;;;4977074;28;20097;-77
2021/06/29 05:07:39;;;;;;;15.32;11.27;;;614.80;1843.20;;;;;;4976842;28;20189;-76
2021/06/29 05:10:07;;;;;;;15.25;10.95;;;615.00;1868.80;;;;;;4977269;28;20035;-77
2021/06/29 05:12:33;;;;;;;12.40;10.63;;;615.10;1817.60;;;;;;4976954;28;20027;-74
2021/06/29 05:14:59;;;;;;;14.30;10.77;;;615.20;1817.60;;;;;;4976863;28;20389;-77
2021/06/29 05:17:25;;;;;;;12.52;10.68;;;615.20;1817.60;;;;;;4976617;28;20029;-77
2021/06/29 05:19:50;;;;;;;13.48;10.57;;;615.20;1843.20;;;;;;4976767;28;20023;-77
2021/06/29 05:22:16;;;;;;;16.98;10.75;;;615.30;1843.20;;;;;;4976586;28;20018;-78
2021/06/29 05:24:42;;;;;;;12.70;10.30;;;;;;;;;;4976445;28;20477;-78
2021/06/29 05:27:08;;;;;;;11.35;10.27;;;;;;;;;;4976336;28;20043;-77
2021/06/29 05:29:34;;;;;;;13.40;10.82;;;640.40;1792.00;;;;;;4976497;28;20500;-78
2021/06/29 05:32:00;;;;;;;21.48;15.52;;;;;;;;;;4976716;28;20049;-78
2021/06/29 05:34:26;;;;;;;12.60;11.30;;;;;;;;;;4976243;28;20473;-78
2021/06/29 05:36:52;;;;;;;12.25;10.15;;;;;;;;;;4976417;28;20110;-77
2021/06/29 05:39:18;;;;;;;12.00;10.25;;;;;;;;;;4976290;28;20027;-78
2021/06/29 05:41:45;;;;;;;14.32;9.75;;;;;;;;;;4976713;28;20031;-78
2021/06/29 05:44:11;;;;;;;13.65;10.02;;;;;;;;;;4976379;28;20027;-77
2021/06/29 05:46:37;;;;;;;16.05;10.95;;;;;;;;;;4976010;28;20385;-78
2021/06/29 05:49:09;;;;;;;16.45;10.57;;;;;;;;;;4976054;28;20026;-77
2021/06/29 05:51:35;;;;;;;12.55;10.18;;;;;;;;;;4975643;28;20026;-76
2021/06/29 05:54:01;;;;;;;15.43;10.07;;;;;;;;;;4984207;28;20057;-77
2021/06/29 05:56:27;;;;;;;12.70;10.23;;;;;;;;;;4981255;28;20544;-78
2021/06/29 05:58:53;;;;;;;12.20;10.98;;;;;;;;;;4976097;28;20517;-77
2021/06/29 06:01:19;;;;;;;17.27;11.30;;;;;;;;;;4976144;28;20035;-78
2021/06/29 06:03:45;;;;;;;11.57;10.18;;;;;;;;;;4975842;28;20111;-77
2021/06/29 06:06:11;;;;;;;18.08;11.13;;;;;;;;;;4975947;28;20027;-79
2021/06/29 06:08:37;;;;;;;14.43;11.52;;;691.30;1587.20;;;;;;4975623;28;20085;-77
2021/06/29 06:11:03;;;;;;;14.05;10.95;;;691.30;1612.80;;;;;;4975408;28;20030;-77
2021/06/29 06:13:29;;;;;;;16.65;14.95;;;691.20;1638.40;;;;;;4975603;28;20054;-77
2021/06/29 06:15:56;;;;;;;15.68;13.82;;;691.30;1612.80;;;;;;4975667;28;20485;-77
2021/06/29 06:18:22;;;;;;;15.15;13.10;;;691.30;1587.20;;;;;;4975638;28;20039;-76
2021/06/29 06:20:48;;;;;;;14.45;12.07;;;;;;;;;;4975504;28;20043;-78
2021/06/29 06:23:14;;;;;;;14.63;12.70;;;;;;;;;;4975573;28;20027;-78
2021/06/29 06:25:41;;;;;;;10.98;9.80;;;;;;;;;;4975120;28;20011;-77
2021/06/29 06:28:07;;;;;;;17.48;10.20;;;;;;;;;;4975395;28;20468;-77
2021/06/29 06:30:33;;;;;;;14.65;10.95;;;;;;;;;;4975694;28;20117;-78
2021/06/29 06:32:59;;;;;;;14.68;10.90;;;;;;;;;;4988537;28;20050;-77
2021/06/29 06:35:25;;;;;;;14.98;10.35;;;;;;;;;;4990391;28;20030;-77
2021/06/29 06:37:51;;;;;;;10.73;9.57;;;;;;;;;;4975132;28;20505;-77
2021/06/29 06:40:18;;;;;;;10.63;9.65;;;;;;;;;;4982236;28;20073;-77
2021/06/29 06:42:46;;;;;;;16.10;11.82;;;;;;;;;;4981510;28;20022;-78
2021/06/29 06:45:12;;;;;;;10.95;9.60;;;;;;;;;;4974923;28;20030;-79
2021/06/29 06:47:39;;;;;;;11.27;9.13;;;;;;;;;;4986483;28;20046;-79
2021/06/29 06:50:06;;;;;;;10.90;9.27;;;;;;;;;;4976967;28;20030;-79
2021/06/29 06:52:33;;;;;;;11.38;10.23;;;;;;;;;;4974992;28;20045;-78
2021/06/29 06:55:00;;;;;;;10.48;9.48;;;;;;;;;;4974875;28;20022;-75
2021/06/29 06:57:26;;;;;;;11.23;9.80;;;;;;;;;;4975275;28;20038;-78
2021/06/29 06:59:52;;;;;;;11.48;10.30;;;;;;;;;;4974864;28;20026;-77
2021/06/29 07:02:18;;;;;;;21.98;11.30;;;;;;;;;;4974318;28;20027;-78
2021/06/29 07:04:44;;;;;;;18.27;12.13;;;;;;;;;;4974545;28;20037;-77
2021/06/29 07:07:10;;;;;;;14.45;10.07;;;;;;;;;;4974483;28;20356;-77
2021/06/29 07:09:36;;;;;;;13.68;11.05;;;;;;;;;;4974697;28;20055;-77
2021/06/29 07:12:02;;;;;;;15.48;11.20;;;;;;;;;;4974890;28;20412;-76
2021/06/29 07:14:28;;;;;;;16.08;10.27;;;;;;;;;;4974637;28;20105;-77
2021/06/29 07:16:54;;;;;;;17.88;11.73;;;;;;;;;;4974487;28;20058;-78
2021/06/29 07:19:21;;;;;;;20.55;11.52;;;;;;;;;;4974438;28;20031;-78
2021/06/29 07:21:47;;;;;;;17.60;11.15;;;;;;;;;;4974531;28;20097;-79
2021/06/29 07:24:13;;;;;;;13.85;11.85;;;;;;;;;;4974217;28;20033;-78
2021/06/29 07:26:39;;;;;;;15.88;11.07;;;;;;;;;;4974088;28;20029;-78
2021/06/29 07:29:05;;;;;;;11.60;10.40;;;;;;;;;;4974466;28;20037;-78
2021/06/29 07:31:32;;;;;;;12.57;11.07;;;;;;;;;;4974239;28;20049;-78
2021/06/29 07:33:58;;;;;;;22.02;12.75;;;;;;;;;;4974378;28;20457;-78
2021/06/29 07:36:24;;;;;;;17.67;11.55;;;;;;;;;;4974097;28;20019;-78
2021/06/29 07:38:55;;;;;;;19.08;11.23;;;;;;;;;;4974313;28;20027;-79
2021/06/29 07:41:21;;;;;;;14.35;11.40;;;;;;;;;;4973955;28;20027;-78
2021/06/29 07:43:47;;;;;;;15.70;11.27;;;;;;;;;;4972995;28;20532;-79
2021/06/29 07:46:13;;;;;;;14.65;12.13;;;;;;;;;;4973843;28;20058;-74
2021/06/29 07:48:39;;;;;;;13.40;11.95;;;;;;;;;;4973932;28;20495;-78
2021/06/29 07:51:06;;;;;;;15.85;12.25;;;;;;;;;;4973828;28;20429;-78
2021/06/29 07:53:33;;;;;;;21.55;11.52;;;;;;;;;;4973874;28;20046;-78
2021/06/29 07:55:59;;;;;;;14.32;12.13;;;;;;;;;;4973804;28;20054;-75
2021/06/29 07:58:25;;;;;;;16.98;11.27;;;;;;;;;;4973760;28;20539;-74
2021/06/29 08:00:51;;;;;;;18.27;11.50;;;;;;;;;;4973942;28;20031;-77
2021/06/29 08:03:17;;;;;;;18.30;12.63;;;;;;;;;;4973515;28;20031;-74
2021/06/29 08:05:43;;;;;;;14.98;12.60;;;;;;;;;;4973760;28;20027;-74
2021/06/29 08:08:09;;;;;;;15.75;12.70;;;;;;;;;;4973805;28;20037;-79
2021/06/29 08:10:37;;;;;;;17.75;12.27;;;;;;;;;;4978199;28;20045;-74
2021/06/29 08:13:04;;;;;;;14.65;11.82;;;;;;;;;;4993080;28;20028;-77
2021/06/29 08:15:30;;;;;;;22.38;11.95;;;;;;;;;;4975928;28;20069;-75
2021/06/29 08:17:56;;;;;;;15.55;10.55;;;;;;;;;;4973373;28;20033;-75
2021/06/29 08:20:22;;;;;;;11.40;9.98;;;;;;;;;;4973623;28;20025;-74
2021/06/29 08:22:50;;;;;;;16.33;11.50;;;;;;;;;;4973538;28;20023;-79
2021/06/29 08:25:16;;;;;;;20.58;10.52;;;;;;;;;;4973526;28;20027;-75
2021/06/29 08:27:43;;;;;;;12.43;10.10;;;;;;;;;;4976802;28;20536;-78
2021/06/29 08:30:10;;;;;;;12.93;9.93;;;;;;;;;;4973772;28;20438;-78
2021/06/29 08:32:37;;;;;;;15.43;11.00;;;;;;;;;;4973619;28;20055;-79
2021/06/29 08:35:05;;;;;;;15.38;9.48;;;;;;;;;;4973482;28;20397;-77
2021/06/29 08:37:31;;;;;;;13.55;8.50;;;;;;;;;;4973547;28;20030;-78
2021/06/29 08:39:57;;;;;;;9.93;8.10;;;;;;;;;;4973412;28;20027;-78
2021/06/29 08:42:23;;;;;;;10.02;7.90;;;;;;;;;;4974126;28;20369;-77
2021/06/29 08:44:49;;;;;;;12.85;7.57;;;;;;;;;;4973656;28;20456;-78
2021/06/29 08:47:16;;;;;;;11.70;7.18;;;;;;;;;;4973214;28;20073;-74
2021/06/29 08:49:42;;;;;;;8.73;7.90;;;;;;;;;;4973061;28;20019;-74
2021/06/29 08:52:09;;;;;;;8.80;6.90;;;;;;;;;;4973205;28;20030;-74
2021/06/29 08:54:35;;;;;;;8.02;7.07;;;;;;;;;;4973285;28;20078;-77
2021/06/29 08:57:02;;;;;;;7.13;6.10;;;;;;;;;;4977965;28;20481;-74
2021/06/29 08:59:28;;;;;;;10.70;6.60;;;;;;;;;;4981845;28;20023;-75
2021/06/29 09:01:55;;;;;;;11.25;6.78;;;;;;;;;;4973507;28;20094;-76
2021/06/29 09:04:39;;;;;;;8.25;6.32;;;;;;;;;;4973210;28;20042;-75
2021/06/29 09:07:24;;;;;;;10.00;6.80;;;;;;;;;;4972991;28;20041;-77
2021/06/29 09:09:54;;;;;;;6.68;5.13;;;;;;;;;;4973401;28;20401;-77
2021/06/29 09:12:40;;;;;;;7.40;5.63;;;;;;;;;;4973103;28;20050;-78
2021/06/29 09:15:26;;;;;;;8.02;6.20;;;;;;;;;;4973243;28;20130;-77
2021/06/29 09:17:54;;;;;;;8.75;5.97;;;;;;;;;;4973149;28;20027;-78
2021/06/29 09:20:31;;;;;;;9.43;5.45;;;;;;;;;;4972917;28;20149;-78
2021/06/29 09:22:58;;;;;;;9.02;5.75;;;;;;;;;;4973193;28;20026;-74
2021/06/29 09:25:29;;;;;;;8.75;6.18;;;;;;;;;;4972816;28;20026;-75
2021/06/29 09:27:57;;;;;;;7.60;5.95;;;;;;;;;;4976059;28;20059;-78
2021/06/29 09:30:32;;;;;;;8.23;4.97;;;;;;;;;;4976566;28;20018;-75
2021/06/29 09:33:03;;;;;;;8.68;6.10;;;;;;;;;;4976090;28;20121;-77
2021/06/29 09:35:32;;;;;;;9.25;5.28;;;;;;;;;;4976360;28;20050;-75
2021/06/29 09:37:58;;;;;;;7.85;6.05;;;;;;;;;;4976272;28;20062;-76
2021/06/29 09:40:26;;;;;;;7.13;5.90;;;;;;;;;;4976441;28;20045;-77
2021/06/29 09:42:53;;;;;;;9.85;6.15;;;;;;;;;;4976249;28;20031;-77
2021/06/29 09:45:35;;;;;;;8.80;5.80;;;;;;;;;;4976189;28;20062;-77
2021/06/29 09:48:02;;;;;;;7.07;5.32;;;;;;;;;;4975987;28;20089;-78
2021/06/29 09:50:47;;;;;;;7.45;5.72;;;;;;;;;;4976089;28;20027;-77
2021/06/29 09:53:16;;;;;;;7.38;5.50;;;;;;;;;;4976171;28;20022;-78
2021/06/29 09:55:43;;;;;;;6.90;5.85;;;;;;;;;;4975956;28;20438;-78
2021/06/29 09:58:10;;;;;;;8.45;6.43;;;;;;;;;;4975922;28;20428;-78
2021/06/29 10:00:48;;;;;;;8.55;6.00;;;;;;;;;;4975796;28;20026;-78
2021/06/29 10:03:23;;;;;;;11.45;6.57;;;;;;;;;;4976225;28;20062;-73
2021/06/29 10:05:51;;;;;;;7.85;6.10;;;;;;;;;;4975792;28;20107;-74
2021/06/29 10:08:25;;;;;;;10.10;7.75;;;;;;;;;;4974656;28;20041;-76
2021/06/29 10:11:02;;;;;;;10.77;6.45;;;;;;;;;;4975916;28;20011;-74
2021/06/29 10:13:32;;;;;;;7.78;6.40;;;;;;;;;;4975811;28;20039;-75
2021/06/29 10:15:59;;;;;;;7.78;6.88;;;;;;;;;;4975796;28;20026;-74
2021/06/29 10:18:26;;;;;;;9.60;6.50;;;;;;;;;;4975853;28;20094;-78
2021/06/29 10:20:53;;;;;;;7.93;7.13;;;;;;;;;;4975784;28;20042;-78
2021/06/29 10:23:20;;;;;;;7.55;6.63;;;;;;;;;;4975886;28;20050;-78
2021/06/29 10:25:47;;;;;;;7.55;6.40;;;;;;;;;;4975378;28;20022;-78
2021/06/29 10:28:14;;;;;;;8.77;6.72;;;;;;;;;;4975415;28;20038;-75
2021/06/29 10:30:40;;;;;;;9.50;6.97;;;;;;;;;;4975557;28;20035;-75
2021/06/29 10:33:08;;;;;;;8.55;6.30;;;;;;;;;;4975090;28;20089;-76
2021/06/29 10:35:34;;;;;;;9.43;7.05;;;;;;;;;;4975269;28;20023;-77
2021/06/29 10:38:01;;;;;;;8.18;6.57;;;;;;;;;;4975012;28;20474;-78
2021/06/29 10:40:27;;;;;;;7.75;6.95;;;;;;;;;;4975378;28;20054;-77
2021/06/29 10:42:57;;;;;;;7.68;6.82;;;;;;;;;;4975150;28;20491;-77
2021/06/29 10:45:23;;;;;;;9.50;6.72;;;;;;;;;;4974988;28;20157;-77
2021/06/29 10:47:49;;;;;;;8.65;6.72;;;;;;;;;;4975024;28;20404;-75
2021/06/29 10:50:16;;;;;;;7.80;7.00;;;;;;;;;;4974788;28;20026;-78
2021/06/29 10:52:43;;;;;;;7.90;6.93;;;;;;;;;;4974909;28;20033;-78
2021/06/29 10:55:18;;;;;;;6.88;6.18;;;;;;;;;;4974656;28;20018;-78
2021/06/29 10:57:45;;;;;;;8.77;6.80;;;;;;;;;;4974875;28;20027;-75
2021/06/29 11:00:17;;;;;;;7.60;6.82;;;;;;;;;;4974838;28;20031;-78
2021/06/29 11:02:44;;;;;;;8.13;6.18;;;;;;;;;;4974862;28;20493;-75
2021/06/29 11:05:11;;;;;;;11.15;6.70;;;;;;;;;;4974512;28;20034;-77
2021/06/29 11:07:41;;;;;;;9.18;7.15;;;;;;;;;;4974685;28;20027;-77
2021/06/29 11:10:15;;;;;;;10.90;6.80;;;;;;;;;;4974794;28;20022;-77
2021/06/29 11:12:49;;;;;;;9.30;6.50;;;;;;;;;;4974458;28;20111;-77
2021/06/29 11:15:16;;;;;;;9.65;7.40;;;;;;;;;;4974435;28;20026;-77
2021/06/29 11:17:49;;;;;;;6.72;6.05;;;;;;;;;;4974835;28;20033;-77
2021/06/29 11:20:18;;;;;;;13.00;6.20;;;;;;;;;;4974417;28;20081;-77
2021/06/29 11:22:53;;;;;;;11.07;6.28;;;;;;;;;;4974418;28;20031;-77
2021/06/29 11:25:39;;;;;;;9.43;7.25;;;;;;;;;;4974323;28;20101;-77
2021/06/29 11:28:25;;;;;;;9.30;7.20;;;;;;;;;;4974010;28;20035;-78
2021/06/29 11:30:54;;;;;;;11.32;6.57;;;;;;;;;;4974358;28;20027;-77
2021/06/29 11:33:33;;;;;;;8.57;6.90;;;;;;;;;;4974243;28;20539;-77
2021/06/29 11:35:59;;;;;;;18.08;7.40;;;;;;;;;;4974473;28;20035;-77
2021/06/29 11:38:32;;;;;;;8.40;6.90;;;;;;;;;;4973980;28;20025;-78
2021/06/29 11:41:18;;;;;;;12.18;6.50;;;;;;;;;;4974020;28;20029;-77
2021/06/29 11:43:45;;;;;;;9.43;6.88;;;;;;;;;;4967118;28;20034;-77
2021/06/29 11:46:11;;;;;;;8.73;6.65;;;;;;;;;;4974090;28;20069;-78
2021/06/29 11:48:41;;;;;;;7.32;6.32;;;;;;;;;;4988371;28;20034;-75
2021/06/29 11:51:07;;;;;;;9.88;6.63;;;;;;;;;;4973922;28;20023;-74
2021/06/29 11:53:37;;;;;;;12.27;7.05;;;;;;;;;;4973729;28;20030;-78
2021/06/29 11:56:03;;;;;;;11.73;6.82;;;;;;;;;;4974195;28;20073;-76
2021/06/29 11:58:29;;;;;;;11.63;5.80;;;;;;;;;;4973873;28;20570;-78
2021/06/29 12:00:57;;;;;;;8.75;6.15;;;;;;;;;;4974069;28;20390;-77
2021/06/29 12:03:24;;;;;;;11.48;5.93;;;;;;;;;;4988311;28;20391;-78
2021/06/29 12:05:50;;;;;;;14.57;5.97;;;;;;;;;;4973942;28;20064;-77
2021/06/29 12:08:17;;;;;;;9.13;5.68;;;;;;;;;;4973703;28;20026;-76
2021/06/29 12:10:44;;;;;;;10.65;5.40;;;;;;;;;;4973673;28;20477;-77
2021/06/29 12:13:15;;;;;;;9.48;5.28;;;;;;;;;;4973830;28;20027;-77
2021/06/29 12:15:41;;;;;;;;;;;;;;;;;;4974122;28;20019;-77
2021/06/29 12:18:07;;;;;;;13.18;6.00;;;;;;;;;;4973647;28;19914;-76
2021/06/29 12:20:37;;;;;;;12.30;5.75;;;;;;;;;;4973467;28;20073;-76
2021/06/29 12:23:05;;;;;;;13.52;6.05;;;;;;;;;;4988529;28;20127;-77
2021/06/29 12:25:38;;;;;;;14.88;5.30;;;;;;;;;;4973476;28;20022;-77
2021/06/29 12:28:15;;;;;;;14.23;5.95;;;;;;;;;;4973469;28;20492;-76
2021/06/29 12:30:52;;;;;;;10.57;5.22;;;;;;;;;;4973945;28;20027;-76
2021/06/29 12:33:29;;;;;;;14.02;5.63;;;;;;;;;;4973239;28;20094;-76
2021/06/29 12:35:56;;;;;;;12.30;6.18;;;;;;;;;;4973657;28;20019;-77
2021/06/29 12:38:25;;;;;;;14.35;5.93;;;845.70;768.00;;;;;;4973345;28;20495;-76
2021/06/29 12:41:03;;;;;;;12.98;5.43;;;845.70;793.60;;;;;;4973521;28;20034;-73
2021/06/29 12:43:40;;;;;;;10.77;5.35;;;845.70;819.20;;;;;;4973300;28;20014;-76
2021/06/29 12:46:18;;;;;;;11.73;4.78;;;845.70;819.20;;;;;;4973269;28;20035;-76
2021/06/29 12:49:17;;;;;;;19.20;6.47;;;845.70;819.20;;;;;;4973664;28;20082;-76
2021/06/29 12:51:50;;;;;;;15.10;5.45;;;845.70;819.20;;;;;;4973311;28;20058;-76
2021/06/29 12:54:23;;;;;;;16.27;7.45;;;845.70;819.20;;;;;;4973423;28;20023;-73
2021/06/29 12:57:01;;;;;;;17.02;7.13;;;870.40;819.20;;;;;;4973247;28;20381;-76
2021/06/29 12:59:33;;;;;;;16.48;6.32;;;870.40;793.60;;;;;;4973381;28;20054;-73
2021/06/29 13:02:09;;;;;;;13.05;5.20;;;845.70;819.20;;;;;;4975731;28;20067;-77
2021/06/29 13:04:46;;;;;;;17.38;9.25;;;;;;;;;;4977058;28;20029;-75
2021/06/29 13:07:13;;;;;;;16.20;6.13;;;;;;;;;;4977125;28;20082;-77
2021/06/29 13:09:41;;;;;;;20.45;6.07;;;;;;;;;;4977082;28;20019;-78
2021/06/29 13:12:09;;;;;;;15.32;6.03;;;;;;;;;;4976673;28;20058;-75
2021/06/29 13:14:37;;;;;;;18.95;6.82;;;871.10;793.60;;;;;;4976990;28;20474;-75
2021/06/29 13:17:12;;;;;;;24.90;9.55;;;870.90;819.20;;;;;;4976809;28;20038;-75
2021/06/29 13:19:38;;;;;;;25.85;9.32;;;870.60;844.80;;;;;;4976610;28;20026;-77
2021/06/29 13:22:08;;;;;;;30.20;11.30;;;;;;;;;;4976487;28;20085;-77
2021/06/29 13:24:39;;;;;;;29.90;10.57;;;;;;;;;;4976678;28;20026;-77
2021/06/29 13:27:05;;;;;;;;;;;;;;;;;;4976754;28;20027;-74
2021/06/29 13:29:33;;;;;;;36.97;11.85;;;;;;;;;;4976480;28;20041;-78
2021/06/29 13:32:05;;;;;;;37.42;14.73;;;;;;;;;;4976337;28;20432;-78
2021/06/29 13:34:35;;;;;;;30.65;12.57;;;;;;;;;;4976442;28;20027;-78
2021/06/29 13:37:17;;;;;;;24.67;9.80;;;;;;;;;;4976611;28;20023;-77
2021/06/29 13:39:43;;;;;;;22.10;9.85;;;;;;;;;;4976348;28;20256;-77
2021/06/29 13:42:19;;;;;;;30.42;10.75;;;;;;;;;;4976305;28;20027;-77
2021/06/29 13:44:56;;;;;;;23.63;8.77;;;;;;;;;;4976147;28;20477;-78
2021/06/29 13:47:22;;;;;;;22.63;9.38;;;;;;;;;;4975998;28;20043;-78
2021/06/29 13:50:06;;;;;;;21.27;9.25;;;845.60;870.40;;;;;;4976200;28;20027;-76
2021/06/29 13:52:32;;;;;;;20.70;8.77;;;845.40;844.80;;;;;;4976522;28;20027;-76
2021/06/29 13:55:10;;;;;;;20.00;7.97;;;845.40;870.40;;;;;;4976243;28;20445;-76
2021/06/29 13:57:37;;;;;;;20.05;8.45;;;845.20;870.40;;;;;;4976050;28;20038;-76
2021/06/29 14:00:29;;;;;;;17.08;8.13;;;845.10;896.00;;;;;;4976055;28;20106;-74
2021/06/29 14:03:03;;;;;;;18.65;7.60;;;845.20;896.00;;;;;;4976000;28;20093;-77
2021/06/29 14:05:37;;;;;;;17.35;7.15;;;845.10;896.00;;;;;;4975854;28;20485;-77
2021/06/29 14:08:20;;;;;;;18.85;7.15;;;845.30;870.40;;;;;;4975796;28;20035;-76
2021/06/29 14:10:51;;;;;;;17.10;7.35;;;845.10;896.00;;;;;;4976239;28;20429;-74
2021/06/29 14:13:27;;;;;;;;;;;845.10;896.00;;;;;;4976003;28;20080;-77